Time;durP1;ratioP1;P1;durP2;ratioP2;P2;SDS_P1;SDS_P2;PMS_P1;PMS_P2;Temp;Humidity;BMP_temperature;BMP_pressure;BME280_temperature;BME280_humidity;BME280_pressure;Samples;Min_cycle;Max_cycle;Signal;HPM_P1;HPM_P2
2022/08/14 00:00:22;;;;;;;2.13;2.03;;;;;;;18.26;62.67;96199.94;5055224;28;20570;-49
2022/08/14 00:02:49;;;;;;;3.13;2.90;;;;;;;18.26;62.54;96191.06;5055184;28;20235;-51
2022/08/14 00:05:18;;;;;;;2.95;2.75;;;;;;;18.23;62.73;96186.94;5054642;28;20235;-50
2022/08/14 00:07:45;;;;;;;2.90;2.70;;;;;;;18.25;61.55;96192.09;5046687;28;20367;-51
2022/08/14 00:10:16;;;;;;;2.60;2.38;;;;;;;18.17;63.15;96189.63;5050712;28;20548;-51
2022/08/14 00:12:45;;;;;;;2.60;2.00;;;;;;;18.04;65.00;96182.34;5055356;28;20289;-50
2022/08/14 00:15:15;;;;;;;3.67;2.92;;;;;;;17.92;64.94;96171.38;5041828;28;20238;-51
2022/08/14 00:17:42;;;;;;;3.53;2.67;;;;;;;17.89;66.09;96166.44;5054789;28;20294;-51
2022/08/14 00:20:11;;;;;;;2.83;2.63;;;;;;;17.86;65.01;96161.50;5054687;28;20290;-52
2022/08/14 00:22:38;;;;;;;2.70;2.50;;;;;;;17.87;64.92;96165.00;5044282;28;20751;-51
2022/08/14 00:25:05;;;;;;;2.87;2.70;;;;;;;17.87;65.53;96165.84;5052475;28;20601;-50
2022/08/14 00:27:34;;;;;;;2.78;2.58;;;;;;;17.85;65.26;96159.03;5054247;28;20206;-50
2022/08/14 00:30:01;;;;;;;2.72;2.53;;;;;;;17.92;64.98;96153.72;5054975;28;20257;-50
2022/08/14 00:32:28;;;;;;;2.65;2.50;;;;;;;17.92;64.61;96155.34;5054529;28;20590;-52
2022/08/14 00:34:55;;;;;;;3.27;2.77;;;;;;;17.86;66.13;96156.16;5054446;28;20247;-50
2022/08/14 00:37:22;;;;;;;2.67;2.47;;;;;;;17.85;66.03;96151.81;5054387;28;20624;-50
2022/08/14 00:39:49;;;;;;;2.88;2.67;;;;;;;17.80;66.23;96156.13;5054588;28;20574;-49
2022/08/14 00:42:19;;;;;;;4.13;2.60;;;;;;;17.76;65.90;96150.34;5054535;28;20207;-51
2022/08/14 00:44:47;;;;;;;2.45;2.28;;;;;;;17.72;65.85;96149.09;5041203;28;20588;-52
2022/08/14 00:47:15;;;;;;;3.42;2.90;;;;;;;17.71;66.21;96152.00;5054259;28;20276;-52
2022/08/14 00:49:41;;;;;;;3.35;3.05;;;;;;;17.68;67.12;96147.84;5041816;28;20309;-50
2022/08/14 00:52:08;;;;;;;4.30;3.00;;;;;;;17.70;65.83;96135.13;5054360;28;20245;-50
2022/08/14 00:54:37;;;;;;;3.05;2.85;;;;;;;17.60;66.94;96139.19;5041430;28;20253;-51
2022/08/14 00:57:05;;;;;;;2.80;2.70;;;;;;;17.58;66.68;96131.34;5054540;28;20207;-51
2022/08/14 00:59:31;;;;;;;2.72;2.53;;;;;;;17.51;67.86;96130.47;5054087;28;20282;-51
2022/08/14 01:02:00;;;;;;;2.92;2.72;;;;;;;17.52;68.14;96132.13;5053999;28;20257;-50
2022/08/14 01:04:30;;;;;;;3.13;2.83;;;;;;;17.53;67.47;96131.09;5054651;28;20293;-51
2022/08/14 01:06:59;;;;;;;2.88;2.67;;;;;;;17.52;66.83;96134.78;5054382;28;20211;-50
2022/08/14 01:09:26;;;;;;;3.20;3.00;;;;;;;17.45;68.01;96133.94;5045064;28;20285;-50
2022/08/14 01:11:53;;;;;;;3.15;2.92;;;;;;;17.36;68.64;96124.41;5050120;28;20307;-51
2022/08/14 01:14:20;;;;;;;2.72;2.58;;;;;;;17.35;69.41;96125.44;5046009;28;20269;-52
2022/08/14 01:16:47;;;;;;;3.13;2.92;;;;;;;17.31;69.81;96124.19;5050112;28;20298;-51
2022/08/14 01:22:01;;;;;;;2.60;2.50;;;;;;;17.29;68.32;96124.38;5048708;28;20289;-50
2022/08/14 01:24:30;;;;;;;2.80;2.60;;;;;;;17.18;71.06;96124.13;5058153;28;20210;-51
2022/08/14 01:26:58;;;;;;;3.10;2.90;;;;;;;17.24;69.99;96124.16;5049831;28;20218;-51
2022/08/14 01:29:25;;;;;;;4.57;2.70;;;;;;;17.18;71.24;96119.56;5066320;28;20249;-51
2022/08/14 01:31:52;;;;;;;2.93;2.73;;;;;;;17.26;69.03;96121.28;5054119;28;20272;-50
2022/08/14 01:34:22;;;;;;;3.25;2.95;;;;;;;17.17;69.98;96112.59;5054468;28;20211;-51
2022/08/14 01:36:49;;;;;;;3.88;2.90;;;;;;;17.13;70.69;96115.84;5053698;28;20333;-50
2022/08/14 01:39:18;;;;;;;3.47;3.10;;;;;;;17.10;70.27;96109.06;5054724;28;20219;-51
2022/08/14 01:41:51;;;;;;;2.93;2.73;;;;;;;17.08;70.03;96112.94;5050992;28;20792;-51
2022/08/14 01:44:18;;;;;;;4.43;2.83;;;;;;;17.03;72.59;96107.38;5052879;28;20207;-50
2022/08/14 01:46:45;;;;;;;2.70;2.50;;;;;;;16.99;72.98;96101.59;5057699;28;20297;-51
2022/08/14 01:49:14;;;;;;;2.75;2.53;;;;;;;17.08;70.89;96107.59;5058097;28;20207;-51
2022/08/14 01:51:42;;;;;;;2.83;2.63;;;;;;;17.09;70.17;96101.25;5058009;28;20215;-53
2022/08/14 01:54:11;;;;;;;4.27;3.07;;;;;;;17.01;71.40;96096.88;5057443;28;20242;-51
2022/08/14 01:56:39;;;;;;;3.40;3.10;;;;;;;16.95;71.68;96096.84;5057711;28;20211;-52
2022/08/14 01:59:11;;;;;;;2.80;2.60;;;;;;;16.89;72.64;96107.28;5044390;28;20211;-52
2022/08/14 02:01:37;;;;;;;3.23;3.03;;;;;;;16.79;73.43;96101.44;5058117;28;20211;-50
2022/08/14 02:04:05;;;;;;;2.77;2.67;;;;;;;16.81;73.44;96101.25;5057316;28;20288;-52
2022/08/14 02:06:33;;;;;;;3.13;2.60;;;;;;;16.83;72.67;96100.03;5045326;28;20271;-51
2022/08/14 02:09:01;;;;;;;3.23;3.03;;;;;;;16.77;73.63;96100.81;5056477;28;20517;-51
2022/08/14 02:11:28;;;;;;;3.83;2.90;;;;;;;16.75;73.36;96094.03;5057560;28;20712;-52
2022/08/14 02:13:59;;;;;;;3.37;2.63;;;;;;;16.71;73.47;96087.44;5052012;28;20204;-50
2022/08/14 02:16:28;;;;;;;3.60;3.00;;;;;;;16.68;74.14;96091.31;5049686;28;20285;-51
2022/08/14 02:18:56;;;;;;;3.03;2.70;;;;;;;16.64;75.12;96089.22;5056940;28;20642;-51
2022/08/14 02:21:23;;;;;;;3.20;2.90;;;;;;;16.66;74.50;96076.50;5057157;28;20294;-51
2022/08/14 02:23:51;;;;;;;5.03;3.07;;;;;;;16.58;74.91;96069.47;5056924;28;20294;-52
2022/08/14 02:26:19;;;;;;;2.73;2.63;;;;;;;16.57;75.75;96067.81;5043770;28;20243;-51
2022/08/14 02:28:48;;;;;;;3.37;3.13;;;;;;;16.59;75.35;96067.63;5056824;28;20251;-51
2022/08/14 02:31:16;;;;;;;4.83;3.20;;;;;;;16.47;75.36;96053.13;5056890;28;20530;-50
2022/08/14 02:33:43;;;;;;;3.23;3.00;;;;;;;16.41;75.87;96046.72;5057112;28;20259;-52
2022/08/14 02:36:11;;;;;;;3.30;3.00;;;;;;;16.38;76.54;96047.94;5056724;28;20286;-51
2022/08/14 02:38:39;;;;;;;3.23;2.93;;;;;;;16.36;76.58;96041.97;5056829;28;20298;-50
2022/08/14 02:41:09;;;;;;;3.30;3.03;;;;;;;16.39;76.76;96043.44;5056742;28;20253;-52
2022/08/14 02:43:37;;;;;;;3.10;2.90;;;;;;;16.34;76.87;96036.00;5047449;28;20286;-50
2022/08/14 02:46:04;;;;;;;2.90;2.70;;;;;;;16.34;76.63;96030.66;5053421;28;20635;-52
2022/08/14 02:48:35;;;;;;;3.20;3.00;;;;;;;16.36;76.59;96022.47;5056336;28;20759;-51
2022/08/14 02:51:06;;;;;;;2.90;2.80;;;;;;;16.41;75.56;96025.38;5056349;28;20227;-51
2022/08/14 02:53:33;;;;;;;3.17;2.90;;;;;;;16.34;77.24;96013.81;5056647;28;20203;-50
2022/08/14 02:56:00;;;;;;;3.40;3.10;;;;;;;16.26;77.22;96008.66;5056220;28;20206;-51
2022/08/14 02:58:30;;;;;;;3.90;3.10;;;;;;;16.25;76.92;96009.66;5056227;28;20199;-50
2022/08/14 03:00:57;;;;;;;3.50;2.90;;;;;;;16.22;77.75;96000.19;5056422;28;20302;-51
2022/08/14 03:03:23;;;;;;;2.93;2.73;;;;;;;16.17;77.47;95999.13;5056401;28;20297;-50
2022/08/14 03:05:53;;;;;;;3.33;3.03;;;;;;;16.16;78.09;96008.13;5056057;28;20542;-51
2022/08/14 03:08:30;;;;;;;3.13;2.93;;;;;;;16.14;78.29;96008.34;5056641;28;20210;-52
2022/08/14 03:10:57;;;;;;;3.20;3.00;;;;;;;16.10;79.07;96003.56;5044381;28;20216;-52
2022/08/14 03:13:23;;;;;;;3.30;3.10;;;;;;;16.11;77.77;96002.56;5055350;28;20272;-50
2022/08/14 03:15:52;;;;;;;3.30;3.00;;;;;;;16.07;78.50;96003.97;5044367;28;20285;-51
2022/08/14 03:18:20;;;;;;;3.47;3.17;;;;;;;16.10;79.00;96011.56;5055873;28;20670;-50
2022/08/14 03:20:48;;;;;;;3.30;3.10;;;;;;;16.09;78.37;96008.06;5056032;28;20206;-51
2022/08/14 03:23:16;;;;;;;2.97;2.73;;;;;;;16.17;77.24;96001.78;5055690;28;20586;-50
2022/08/14 03:25:43;;;;;;;2.93;2.80;;;;;;;16.17;77.35;96007.13;5055800;28;20543;-52
2022/08/14 03:28:11;;;;;;;3.57;2.83;;;;;;;16.11;79.21;96003.41;5055592;28;20306;-51
2022/08/14 03:30:38;;;;;;;3.20;3.00;;;;;;;16.10;80.13;95995.56;5055756;28;20620;-52
2022/08/14 03:33:07;;;;;;;3.00;2.80;;;;;;;16.10;79.60;96000.91;5059784;28;20212;-51
2022/08/14 03:35:34;;;;;;;3.00;2.80;;;;;;;16.11;79.46;95997.22;5060826;28;20209;-51
2022/08/14 03:38:07;;;;;;;3.13;2.93;;;;;;;16.02;79.69;95987.69;5060976;28;20285;-51
2022/08/14 03:40:37;;;;;;;3.73;3.43;;;;;;;16.03;79.87;95990.19;5060024;28;20195;-52
2022/08/14 03:43:04;;;;;;;3.10;2.90;;;;;;;16.00;80.22;95987.09;5055220;28;20676;-51
2022/08/14 03:45:31;;;;;;;3.00;2.80;;;;;;;15.97;79.67;95990.13;5055641;28;20222;-51
2022/08/14 03:47:59;;;;;;;3.20;2.90;;;;;;;15.94;80.55;95994.03;5055006;28;20238;-52
2022/08/14 03:50:26;;;;;;;3.17;2.87;;;;;;;15.85;80.91;95995.97;5055955;28;20227;-52
2022/08/14 03:52:53;;;;;;;3.50;3.30;;;;;;;15.89;80.73;96004.41;5055479;28;20294;-52
2022/08/14 03:55:19;;;;;;;3.20;3.00;;;;;;;15.80;81.02;95989.59;5054822;28;20290;-51
2022/08/14 03:57:48;;;;;;;3.50;3.17;;;;;;;15.85;80.54;95997.81;5055108;28;20196;-50
2022/08/14 04:00:15;;;;;;;3.30;3.00;;;;;;;15.84;81.34;95993.50;5054938;28;20199;-52
2022/08/14 04:02:42;;;;;;;3.37;3.17;;;;;;;15.76;81.16;95993.66;5054259;28;20191;-51
2022/08/14 04:05:10;;;;;;;3.30;3.10;;;;;;;15.75;81.78;95998.16;5054708;28;20314;-51
2022/08/14 04:07:38;;;;;;;3.50;3.27;;;;;;;15.72;82.20;95993.19;5054955;28;20294;-51
2022/08/14 04:10:06;;;;;;;3.43;3.13;;;;;;;15.70;81.33;96002.38;5055227;28;20258;-52
2022/08/14 04:12:35;;;;;;;3.40;3.10;;;;;;;15.74;80.40;95995.66;5055294;28;20230;-51
2022/08/14 04:15:04;;;;;;;3.47;3.27;;;;;;;15.66;82.09;95988.59;5054323;28;20207;-50
2022/08/14 04:17:32;;;;;;;3.40;3.20;;;;;;;15.67;82.54;95987.59;5054920;28;20202;-49
2022/08/14 04:20:04;;;;;;;3.80;3.50;;;;;;;15.70;82.81;95997.88;5055225;28;20222;-52
2022/08/14 04:22:31;;;;;;;3.50;3.30;;;;;;;15.69;82.33;95990.91;5054631;28;20203;-51
2022/08/14 04:24:58;;;;;;;3.50;3.30;;;;;;;15.62;82.32;96003.34;5055166;28;20301;-51
2022/08/14 04:27:26;;;;;;;3.77;3.23;;;;;;;15.57;82.41;96003.09;5053657;28;20522;-52
2022/08/14 04:29:53;;;;;;;3.77;3.47;;;;;;;15.58;82.17;96006.59;5054779;28;20214;-50
2022/08/14 04:32:22;;;;;;;3.97;3.67;;;;;;;15.61;82.40;96001.69;5054797;28;20306;-51
2022/08/14 04:34:49;;;;;;;3.37;3.17;;;;;;;15.55;83.35;96002.47;5054522;28;20607;-50
2022/08/14 04:45:31;;;;;;;3.40;3.20;;;;;;;15.80;82.71;96005.59;5046384;28;20696;-51
2022/08/14 04:48:15;;;;;;;3.53;3.20;;;;;;;15.88;81.95;96005.44;5054569;28;20299;-51
2022/08/14 04:50:44;;;;;;;3.23;3.00;;;;;;;15.91;82.18;96000.53;5054300;28;20245;-51
2022/08/14 04:53:12;;;;;;;3.53;3.30;;;;;;;15.94;82.15;96007.34;5054965;28;20211;-51
2022/08/14 04:55:40;;;;;;;3.67;3.43;;;;;;;15.88;82.57;96008.94;5055985;28;20203;-52
2022/08/14 04:58:09;;;;;;;4.10;3.50;;;;;;;15.97;82.13;96003.47;5055874;28;20207;-51
2022/08/14 05:00:35;;;;;;;3.47;3.20;;;;;;;16.01;81.42;96004.75;5056145;28;20203;-50
2022/08/14 05:03:04;;;;;;;3.43;3.23;;;;;;;16.02;81.78;96011.69;5055830;28;20605;-51
2022/08/14 05:05:31;;;;;;;3.50;3.20;;;;;;;15.94;82.38;96016.16;5056172;28;20522;-50
2022/08/14 05:08:08;;;;;;;4.03;3.63;;;;;;;15.94;83.28;96013.47;5055232;28;20234;-52
2022/08/14 05:10:36;;;;;;;3.10;2.73;;;;;;;16.72;84.62;96011.66;5055040;28;20532;-54
2022/08/14 05:13:04;;;;;;;2.73;2.10;;;;;;;17.89;79.13;96010.47;5054467;28;20234;-50
2022/08/14 05:15:35;;;;;;;2.60;2.40;;;;;;;19.01;72.92;96005.06;5045049;28;20203;-52
2022/08/14 05:18:04;;;;;;;2.53;2.42;;;;;;;19.76;68.85;96015.09;5058299;28;20222;-53
2022/08/14 05:20:31;;;;;;;2.10;2.00;;;;;;;20.71;64.50;96006.75;5045499;28;20297;-52
2022/08/14 05:22:59;;;;;;;2.30;2.20;;;;;;;21.48;60.82;96005.28;5059017;28;20271;-51
2022/08/14 05:25:25;;;;;;;2.90;2.70;;;;;;;21.96;58.98;95997.22;5040126;28;20227;-53
2022/08/14 05:27:52;;;;;;;2.60;2.40;;;;;;;22.17;58.19;95998.56;5040005;28;20235;-52
2022/08/14 05:30:19;;;;;;;3.30;2.67;;;;;;;22.41;56.71;95989.47;5059943;28;20249;-52
2022/08/14 05:32:45;;;;;;;4.18;2.63;;;;;;;22.74;55.56;95991.63;5059387;28;20245;-53
2022/08/14 05:35:13;;;;;;;2.83;2.63;;;;;;;22.99;54.02;95975.19;5060727;28;20203;-52
2022/08/14 05:37:41;;;;;;;2.88;2.40;;;;;;;23.21;53.54;95974.31;5045780;28;20547;-53
2022/08/14 05:40:09;;;;;;;2.67;2.47;;;;;;;23.37;52.64;95972.75;5059838;28;20239;-53
2022/08/14 05:42:37;;;;;;;5.47;2.65;;;;;;;23.62;51.96;95964.38;5069790;28;20207;-52
2022/08/14 05:45:05;;;;;;;3.53;2.70;;;;;;;23.64;51.67;95963.06;5079012;28;20293;-52
2022/08/14 05:47:34;;;;;;;3.40;2.92;;;;;;;23.69;51.30;95971.28;5077993;28;20667;-53
2022/08/14 05:50:00;;;;;;;3.03;2.70;;;;;;;23.84;50.92;95964.53;5062419;28;20235;-50
2022/08/14 05:52:28;;;;;;;4.50;3.10;;;;;;;24.08;49.66;95947.13;5060074;28;20313;-50
2022/08/14 05:54:56;;;;;;;3.92;2.60;;;;;;;24.22;48.80;95945.78;5057664;28;20214;-52
2022/08/14 05:57:23;;;;;;;3.30;3.10;;;;;;;23.05;51.55;95942.69;5056786;28;20211;-51
2022/08/14 05:59:50;;;;;;;3.42;3.20;;;;;;;22.53;53.51;95938.28;5056673;28;20302;-50
2022/08/14 06:02:16;;;;;;;3.75;3.45;;;;;;;22.19;54.38;95931.81;5055778;28;20236;-50
2022/08/14 06:04:47;;;;;;;5.43;3.55;;;;;;;21.82;55.66;95923.84;5057826;28;20235;-50
2022/08/14 06:07:14;;;;;;;3.75;3.45;;;;;;;21.72;56.14;95930.84;5057564;28;20664;-51
2022/08/14 06:09:44;;;;;;;3.58;3.10;;;;;;;21.87;55.74;95935.81;5056892;28;20203;-50
2022/08/14 06:12:11;;;;;;;4.00;3.17;;;;;;;21.68;55.44;95938.56;5058643;28;20249;-49
2022/08/14 06:14:38;;;;;;;3.95;2.85;;;;;;;21.58;57.84;95927.53;5059044;28;20241;-51
2022/08/14 06:17:04;;;;;;;3.90;3.60;;;;;;;21.72;57.08;95928.16;5057645;28;20241;-51
2022/08/14 06:19:31;;;;;;;3.67;3.38;;;;;;;22.08;56.06;95924.53;5058572;28;20258;-50
2022/08/14 06:21:58;;;;;;;6.50;3.65;;;;;;;22.13;55.84;95921.97;5057766;28;20222;-50
2022/08/14 06:24:24;;;;;;;3.97;3.20;;;;;;;22.57;51.76;95923.25;5057191;28;20285;-51
2022/08/14 06:26:53;;;;;;;3.63;3.40;;;;;;;22.54;53.88;95929.94;5056058;28;20647;-49
2022/08/14 06:29:19;;;;;;;3.90;3.42;;;;;;;22.57;51.24;95926.78;5056983;28;20290;-50
2022/08/14 06:31:46;;;;;;;3.47;3.28;;;;;;;22.88;50.86;95939.09;5057358;28;20651;-49
2022/08/14 06:34:13;;;;;;;4.25;3.53;;;;;;;23.18;50.55;95930.81;5057245;28;20207;-52
2022/08/14 06:36:40;;;;;;;4.90;3.13;;;;;;;23.02;52.28;95935.09;5044010;28;20295;-51
2022/08/14 06:39:06;;;;;;;2.90;2.70;;;;;;;23.55;49.57;95937.53;5056962;28;20526;-50
2022/08/14 06:41:33;;;;;;;3.28;2.97;;;;;;;23.61;50.20;95941.97;5057115;28;20291;-50
2022/08/14 06:44:01;;;;;;;3.78;3.50;;;;;;;23.47;48.61;95939.78;5060156;28;20239;-50
2022/08/14 06:46:29;;;;;;;2.80;2.60;;;;;;;23.79;49.44;95938.25;5048266;28;20230;-50
2022/08/14 06:48:56;;;;;;;3.15;2.95;;;;;;;23.94;50.19;95935.00;5060377;28;20223;-52
2022/08/14 06:51:23;;;;;;;2.78;2.58;;;;;;;24.30;46.85;95937.25;5058742;28;20309;-49
2022/08/14 06:53:49;;;;;;;2.97;2.78;;;;;;;24.07;49.25;95937.38;5056500;28;20234;-50
2022/08/14 06:56:16;;;;;;;3.38;3.08;;;;;;;24.15;49.80;95934.31;5056434;28;20203;-50
2022/08/14 06:58:43;;;;;;;3.15;2.90;;;;;;;24.22;49.32;95943.91;5056111;28;20214;-52
2022/08/14 07:06:40;;;;;;;3.75;3.20;;;;;;;24.51;47.33;95943.81;5056287;28;20214;-51
2022/08/14 07:09:11;;;;;;;5.80;3.25;;;;;;;24.66;47.93;95944.84;5056257;28;20211;-51
2022/08/14 07:11:37;;;;;;;3.78;3.47;;;;;;;24.59;47.73;95943.38;5055960;28;20239;-51
2022/08/14 07:14:04;;;;;;;6.50;3.50;;;;;;;24.76;47.78;95946.88;5056056;28;20578;-52
2022/08/14 07:16:32;;;;;;;3.10;2.90;;;;;;;24.69;47.72;95949.75;5056008;28;20282;-53
2022/08/14 07:18:59;;;;;;;3.60;3.08;;;;;;;24.97;47.59;95948.84;5056103;28;20290;-50
2022/08/14 07:21:26;;;;;;;3.63;3.40;;;;;;;24.98;48.44;95961.28;5056076;28;20230;-51
2022/08/14 07:23:52;;;;;;;3.03;2.92;;;;;;;25.09;45.99;95954.94;5055059;28;20529;-51
2022/08/14 07:26:19;;;;;;;3.17;2.88;;;;;;;24.98;47.16;95953.16;5055423;28;20709;-51
2022/08/14 07:28:46;;;;;;;3.30;3.00;;;;;;;25.01;45.04;95946.47;5056157;28;20295;-51
2022/08/14 07:31:13;;;;;;;3.30;3.00;;;;;;;25.05;45.40;95952.97;5055662;28;20722;-52
2022/08/14 07:33:43;;;;;;;3.35;3.10;;;;;;;25.46;46.20;95948.91;5055964;28;20744;-50
2022/08/14 07:36:15;;;;;;;3.25;2.95;;;;;;;25.45;45.02;95950.78;5055394;28;20202;-53
2022/08/14 07:38:42;;;;;;;3.50;3.20;;;;;;;25.69;44.76;95954.06;5055522;28;20195;-50
2022/08/14 07:41:12;;;;;;;3.47;3.05;;;;;;;25.42;42.94;95950.47;5055660;28;20299;-51
2022/08/14 07:43:40;;;;;;;3.30;3.00;;;;;;;25.22;44.62;95938.31;5055756;28;20209;-51
2022/08/14 07:46:07;;;;;;;3.22;2.92;;;;;;;25.28;44.80;95931.09;5054716;28;20770;-50
2022/08/14 07:48:38;;;;;;;2.95;2.75;;;;;;;25.64;44.17;95916.13;5055326;28;20231;-51
2022/08/14 07:51:06;;;;;;;2.80;2.60;;;;;;;25.65;44.00;95910.41;5055749;28;20195;-51
2022/08/14 07:53:33;;;;;;;2.90;2.67;;;;;;;25.91;44.33;95913.38;5070163;28;20202;-52
2022/08/14 07:56:00;;;;;;;2.63;2.42;;;;;;;25.73;44.64;95923.50;5073698;28;20203;-53
2022/08/14 07:58:27;;;;;;;2.90;2.70;;;;;;;25.67;44.94;95940.78;5073117;28;20206;-51
2022/08/14 08:00:55;;;;;;;3.28;3.00;;;;;;;25.95;44.85;95941.59;5058931;28;20302;-51
2022/08/14 08:03:22;;;;;;;2.83;2.63;;;;;;;25.79;44.12;95937.13;5058638;28;20242;-52
2022/08/14 08:05:48;;;;;;;3.05;2.85;;;;;;;26.24;42.75;95934.88;5055292;28;20302;-52
2022/08/14 08:08:17;;;;;;;3.03;2.72;;;;;;;26.61;43.06;95941.09;5055578;28;20289;-52
2022/08/14 08:10:45;;;;;;;3.78;2.53;;;;;;;26.38;42.12;95937.97;5056039;28;20209;-50
2022/08/14 08:13:14;;;;;;;3.03;2.83;;;;;;;26.56;42.89;95943.81;5055594;28;20313;-50
2022/08/14 08:15:42;;;;;;;2.70;2.50;;;;;;;26.43;42.83;95941.50;5055313;28;20253;-52
2022/08/14 08:18:12;;;;;;;2.70;2.58;;;;;;;26.31;43.00;95938.19;5055117;28;20223;-51
2022/08/14 08:20:45;;;;;;;3.15;2.85;;;;;;;26.00;45.65;95939.78;5054123;28;20286;-51
2022/08/14 08:23:12;;;;;;;2.92;2.80;;;;;;;26.09;43.79;95931.97;5055147;28;20210;-51
2022/08/14 08:25:42;;;;;;;2.78;2.58;;;;;;;26.13;44.81;95927.69;5054894;28;20290;-50
2022/08/14 08:28:11;;;;;;;3.00;2.53;;;;;;;25.87;43.96;95923.91;5054941;28;20207;-51
2022/08/14 08:30:39;;;;;;;3.08;2.60;;;;;;;26.07;44.74;95926.03;5054393;28;20260;-51
2022/08/14 08:33:07;;;;;;;2.60;2.50;;;;;;;26.34;43.77;95913.25;5054513;28;20682;-52
2022/08/14 08:35:38;;;;;;;2.75;2.55;;;;;;;26.63;43.43;95909.13;5054703;28;20202;-52
2022/08/14 08:38:06;;;;;;;3.53;2.92;;;;;;;26.76;44.40;95915.16;5054973;28;20290;-50
2022/08/14 08:40:35;;;;;;;2.95;2.70;;;;;;;27.07;43.88;95911.56;5054684;28;20290;-51
2022/08/14 08:43:05;;;;;;;3.30;3.03;;;;;;;27.25;42.66;95911.09;5054863;28;20199;-50
2022/08/14 08:45:32;;;;;;;3.35;2.90;;;;;;;27.30;42.99;95905.69;5054054;28;20195;-52
2022/08/14 08:48:01;;;;;;;2.95;2.70;;;;;;;27.51;41.86;95902.00;5053810;28;20325;-52
2022/08/14 08:50:30;;;;;;;3.03;2.45;;;;;;;27.64;40.15;95906.09;5055022;28;20290;-51
2022/08/14 08:52:59;;;;;;;2.47;2.38;;;;;;;28.09;40.42;95910.84;5054670;28;20219;-50
2022/08/14 08:55:31;;;;;;;2.70;2.50;;;;;;;28.16;40.67;95914.91;5054319;28;20203;-51
2022/08/14 08:58:00;;;;;;;2.72;2.53;;;;;;;28.40;39.82;95908.94;5054797;28;20237;-52
2022/08/14 09:00:32;;;;;;;2.60;2.50;;;;;;;28.42;38.27;95912.19;5054927;28;20245;-52
2022/08/14 09:03:03;;;;;;;2.28;2.13;;;;;;;28.46;40.85;95913.28;5054527;28;20596;-50
2022/08/14 09:05:30;;;;;;;3.13;2.60;;;;;;;28.46;40.10;95908.66;5054256;28;20635;-52
2022/08/14 09:08:10;;;;;;;3.47;2.53;;;;;;;28.42;39.10;95913.00;5054719;28;20203;-53
2022/08/14 09:10:37;;;;;;;3.10;2.72;;;;;;;28.46;38.51;95919.53;5054805;28;20203;-54
2022/08/14 09:13:03;;;;;;;3.10;2.78;;;;;;;28.33;38.31;95906.50;5054447;28;20233;-51
2022/08/14 09:15:31;;;;;;;2.33;2.10;;;;;;;28.11;38.26;95900.50;5054202;28;20286;-51
2022/08/14 09:17:59;;;;;;;2.58;2.47;;;;;;;28.58;39.08;95914.63;5054794;28;20298;-49
2022/08/14 09:20:26;;;;;;;4.22;2.55;;;;;;;28.55;40.03;95915.19;5054479;28;20203;-51
2022/08/14 09:22:54;;;;;;;3.33;2.25;;;;;;;28.93;39.66;95912.97;5054447;28;20209;-51
2022/08/14 09:25:20;;;;;;;2.55;2.40;;;;;;;29.02;39.42;95922.19;5054061;28;20244;-51
2022/08/14 09:27:47;;;;;;;2.45;2.33;;;;;;;28.84;38.07;95918.13;5054365;28;20291;-52
2022/08/14 09:30:14;;;;;;;2.33;2.22;;;;;;;28.97;38.65;95922.22;5054647;28;20239;-51
2022/08/14 09:32:59;;;;;;;2.58;2.47;;;;;;;29.33;39.29;95918.31;5054699;28;20227;-51
2022/08/14 09:35:33;;;;;;;2.60;2.40;;;;;;;28.85;38.57;95905.34;5043144;28;20627;-50
2022/08/14 09:38:05;;;;;;;2.70;2.58;;;;;;;29.11;38.58;95898.75;5054203;28;20230;-52
2022/08/14 09:40:40;;;;;;;2.83;2.63;;;;;;;29.32;39.48;95894.06;5054327;28;20624;-52
2022/08/14 09:43:15;;;;;;;2.70;2.60;;;;;;;29.33;38.80;95880.19;5053938;28;20227;-52
2022/08/14 09:45:46;;;;;;;3.35;2.38;;;;;;;29.08;38.83;95882.97;5053817;28;20248;-50
2022/08/14 09:48:18;;;;;;;2.92;2.67;;;;;;;29.02;38.90;95884.06;5040698;28;20239;-51
2022/08/14 09:50:48;;;;;;;2.50;2.30;;;;;;;29.08;39.19;95877.53;5054423;28;20597;-51
2022/08/14 09:53:17;;;;;;;2.92;2.72;;;;;;;29.02;39.43;95875.91;5054345;28;20258;-50
2022/08/14 09:55:44;;;;;;;2.63;2.42;;;;;;;28.67;38.45;95874.91;5053751;28;20235;-51
2022/08/14 09:58:13;;;;;;;2.70;2.50;;;;;;;28.77;39.31;95876.00;5054481;28;20278;-51
2022/08/14 10:00:46;;;;;;;3.17;2.97;;;;;;;28.62;39.06;95874.91;5055366;28;20294;-49
2022/08/14 10:03:12;;;;;;;2.65;2.45;;;;;;;28.71;40.32;95877.09;5065859;28;20214;-52
2022/08/14 10:05:41;;;;;;;2.70;2.50;;;;;;;29.03;40.62;95885.72;5073134;28;20234;-51
2022/08/14 10:08:18;;;;;;;2.90;2.80;;;;;;;29.22;38.67;95889.47;5071785;28;20239;-52
2022/08/14 10:10:45;;;;;;;3.08;2.75;;;;;;;29.47;39.07;95889.38;5047413;28;20235;-52
2022/08/14 10:13:23;;;;;;;2.85;2.65;;;;;;;29.55;38.00;95883.31;5058095;28;20410;-51
2022/08/14 10:15:49;;;;;;;2.85;2.75;;;;;;;29.65;37.41;95877.81;5057241;28;20253;-52
2022/08/14 10:18:18;;;;;;;3.47;2.90;;;;;;;29.44;36.90;95876.28;5056950;28;20201;-52
2022/08/14 10:20:54;;;;;;;2.85;2.65;;;;;;;29.40;37.57;95879.88;5057140;28;20272;-52
2022/08/14 10:23:22;;;;;;;2.63;2.47;;;;;;;29.19;38.14;95865.50;5057341;28;20195;-52
2022/08/14 10:25:50;;;;;;;2.60;2.50;;;;;;;29.07;37.71;95868.53;5057095;28;20207;-52
2022/08/14 10:28:18;;;;;;;3.10;2.70;;;;;;;29.07;37.33;95859.56;5057249;28;20297;-51
2022/08/14 10:30:47;;;;;;;2.72;2.53;;;;;;;29.30;38.75;95850.75;5057189;28;20241;-52
2022/08/14 10:33:25;;;;;;;2.50;2.40;;;;;;;29.24;38.34;95849.13;5056665;28;20702;-51
2022/08/14 10:35:54;;;;;;;2.28;2.17;;;;;;;29.62;37.27;95842.94;5056916;28;20191;-52
2022/08/14 10:38:28;;;;;;;2.50;2.40;;;;;;;29.97;36.88;95846.56;5044042;28;20235;-51
2022/08/14 10:40:55;;;;;;;2.50;2.30;;;;;;;30.26;36.18;95850.13;5056724;28;20646;-53
2022/08/14 10:43:25;;;;;;;2.80;2.60;;;;;;;30.28;36.71;95844.41;5058365;28;20620;-52
2022/08/14 10:45:54;;;;;;;2.30;2.20;;;;;;;30.51;36.85;95840.91;5056597;28;20294;-52
2022/08/14 10:48:21;;;;;;;2.80;2.60;;;;;;;30.71;37.08;95839.91;5056062;28;20710;-52
2022/08/14 10:50:50;;;;;;;2.40;2.30;;;;;;;30.68;35.20;95837.75;5056453;28;20703;-53
2022/08/14 10:53:29;;;;;;;2.42;2.33;;;;;;;30.74;34.97;95839.31;5056294;28;20292;-52
2022/08/14 10:56:02;;;;;;;2.78;2.58;;;;;;;30.69;32.47;95837.47;5056641;28;20198;-52
2022/08/14 10:58:31;;;;;;;4.40;2.47;;;;;;;30.88;33.87;95834.78;5058812;28;20198;-52
2022/08/14 11:01:00;;;;;;;3.13;2.78;;;;;;;30.75;33.04;95838.22;5054866;28;20639;-53
2022/08/14 11:03:37;;;;;;;3.38;2.33;;;;;;;30.95;34.14;95846.19;5055620;28;20203;-52
2022/08/14 11:06:14;;;;;;;3.45;2.50;;;;;;;30.91;33.84;95842.41;5044352;28;20283;-52
2022/08/14 11:08:42;;;;;;;2.63;2.53;;;;;;;30.91;31.98;95850.59;5056366;28;20195;-51
2022/08/14 11:11:08;;;;;;;5.13;2.75;;;;;;;30.65;33.02;95843.78;5056461;28;20294;-53
2022/08/14 11:13:37;;;;;;;2.72;2.53;;;;;;;30.56;31.71;95854.53;5053711;28;20227;-53
2022/08/14 11:16:03;;;;;;;2.65;2.45;;;;;;;30.81;33.55;95856.19;5052279;28;20203;-53
2022/08/14 11:18:31;;;;;;;2.97;2.78;;;;;;;30.82;32.32;95850.41;5055538;28;20286;-52
2022/08/14 11:20:59;;;;;;;3.33;3.03;;;;;;;30.93;33.63;95853.84;5056215;28;20211;-52
2022/08/14 11:23:28;;;;;;;3.10;2.75;;;;;;;31.06;34.31;95855.91;5056078;28;20207;-52
2022/08/14 11:25:58;;;;;;;3.03;2.67;;;;;;;31.14;34.31;95859.94;5055785;28;20207;-51
2022/08/14 11:28:26;;;;;;;3.80;3.30;;;;;;;31.06;35.77;95866.84;5056335;28;20210;-50
2022/08/14 11:30:55;;;;;;;3.50;3.20;;;;;;;30.98;34.89;95860.09;5056698;28;20286;-52
2022/08/14 11:33:23;;;;;;;2.90;2.70;;;;;;;30.79;35.36;95856.44;5055826;28;20226;-51
2022/08/14 11:35:49;;;;;;;3.15;2.95;;;;;;;30.82;36.05;95874.19;5055255;28;20206;-51
2022/08/14 11:38:18;;;;;;;3.25;2.97;;;;;;;30.72;34.03;95864.16;5055496;28;20303;-52
2022/08/14 11:40:45;;;;;;;3.00;2.70;;;;;;;30.49;34.85;95871.25;5055905;28;20211;-52
2022/08/14 11:43:14;;;;;;;2.72;2.53;;;;;;;30.56;35.60;95874.44;5042277;28;20592;-52
2022/08/14 11:45:40;;;;;;;2.88;2.50;;;;;;;30.42;36.90;95881.69;5055437;28;20506;-51
2022/08/14 11:48:18;;;;;;;2.85;2.65;;;;;;;30.33;36.23;95871.59;5054581;28;20660;-53
2022/08/14 11:50:45;;;;;;;2.97;2.78;;;;;;;30.26;36.00;95869.22;5054472;28;20651;-53
2022/08/14 11:53:20;;;;;;;3.35;2.40;;;;;;;30.17;35.50;95872.84;5055458;28;20249;-51
2022/08/14 11:55:55;;;;;;;3.10;2.78;;;;;;;29.97;35.77;95869.16;5055232;28;20226;-52